createdAt,value
2022-12-01T00:01:35.035Z,55.25
2022-12-01T00:03:37.381Z,48.28
2022-12-01T00:05:39.137Z,53.15
2022-12-01T00:07:40.795Z,62.30
2022-12-01T00:09:43.913Z,60.22
2022-12-01T00:11:45.514Z,60.80
2022-12-01T00:13:47.090Z,48.00
2022-12-01T00:15:48.735Z,59.05
2022-12-01T00:17:50.336Z,55.70
2022-12-01T00:19:51.977Z,52.45
2022-12-01T00:21:53.949Z,51.60
2022-12-01T00:23:57.211Z,54.08
2022-12-01T00:26:04.087Z,51.75
2022-12-01T00:28:05.922Z,57.22
2022-12-01T00:32:10.414Z,64.22
2022-12-01T00:34:22.368Z,57.97
2022-12-01T00:36:24.005Z,50.95
2022-12-01T00:38:25.741Z,49.00
2022-12-01T00:40:27.389Z,56.70
2022-12-01T00:42:30.419Z,55.75
2022-12-01T00:44:32.022Z,54.28
2022-12-01T00:46:33.841Z,52.10
2022-12-01T00:50:36.890Z,48.97
2022-12-01T00:52:38.421Z,46.72
2022-12-01T00:54:40.398Z,53.25
2022-12-01T00:56:41.956Z,52.70
2022-12-01T00:58:44.970Z,49.80
2022-12-01T01:00:46.720Z,52.28
2022-12-01T01:02:48.265Z,58.45
2022-12-01T01:04:49.970Z,54.33
2022-12-01T01:06:51.566Z,50.38
2022-12-01T01:08:53.129Z,53.58
2022-12-01T01:10:54.706Z,47.58
2022-12-01T01:12:56.246Z,58.03
2022-12-01T01:14:59.289Z,50.75
2022-12-01T01:17:01.209Z,49.72
2022-12-01T01:19:02.859Z,44.42
2022-12-01T01:21:07.907Z,54.63
2022-12-01T01:23:09.474Z,54.65
2022-12-01T01:25:11.091Z,44.22
2022-12-01T01:27:12.625Z,54.55
2022-12-01T01:29:14.264Z,48.03
2022-12-01T01:31:19.548Z,49.88
2022-12-01T01:33:21.141Z,48.45
2022-12-01T01:35:22.782Z,47.92
2022-12-01T01:37:24.460Z,51.60
2022-12-01T01:39:25.987Z,56.17
2022-12-01T01:41:27.662Z,58.08
2022-12-01T01:43:45.152Z,47.72
2022-12-01T01:45:46.739Z,44.58
2022-12-01T01:47:51.905Z,53.80
2022-12-01T01:49:55.548Z,59.08
2022-12-01T01:51:57.253Z,50.17
2022-12-01T01:54:03.723Z,45.47
2022-12-01T01:56:07.006Z,49.53
2022-12-01T01:58:10.522Z,53.33
2022-12-01T02:00:15.948Z,55.08
2022-12-01T02:02:17.550Z,52.80
2022-12-01T02:04:20.674Z,62.65
2022-12-01T02:06:22.957Z,53.38
2022-12-01T02:08:24.698Z,48.47
2022-12-01T02:10:36.547Z,46.75
2022-12-01T02:12:54.570Z,53.67
2022-12-01T02:15:08.599Z,53.80
2022-12-01T02:17:22.353Z,45.13
2022-12-01T02:19:45.046Z,55.30
2022-12-01T02:22:03.262Z,57.22
2022-12-01T02:24:42.503Z,55.38
2022-12-01T02:26:50.710Z,61.45
2022-12-01T02:31:03.022Z,45.20
2022-12-01T02:33:11.510Z,56.20
2022-12-01T02:35:19.325Z,67.47
2022-12-01T02:37:28.227Z,49.60
2022-12-01T02:39:35.482Z,67.72
2022-12-01T02:41:41.871Z,61.40
2022-12-01T02:43:48.288Z,51.88
2022-12-01T02:45:53.897Z,50.80
2022-12-01T02:48:00.679Z,55.33
2022-12-01T02:50:04.656Z,69.13
2022-12-01T02:52:06.862Z,52.08
2022-12-01T02:54:13.661Z,57.10
2022-12-01T02:56:15.562Z,51.03
2022-12-01T02:58:17.169Z,48.50
2022-12-01T03:00:19.154Z,56.83
2022-12-01T03:02:31.932Z,67.18
2022-12-01T03:04:52.537Z,63.40
2022-12-01T03:07:03.876Z,66.45
2022-12-01T03:09:24.512Z,54.85
2022-12-01T03:11:34.260Z,66.22
2022-12-01T03:13:44.692Z,65.80
2022-12-01T03:15:54.243Z,56.35
2022-12-01T03:18:02.122Z,60.83
2022-12-01T03:20:12.518Z,55.10
2022-12-01T03:22:20.007Z,62.58
2022-12-01T03:24:25.874Z,59.45
2022-12-01T03:26:31.272Z,52.70
2022-12-01T03:28:36.485Z,54.15
2022-12-01T03:30:40.337Z,56.83
2022-12-01T03:32:45.754Z,52.70
2022-12-01T03:34:50.755Z,59.88
2022-12-01T03:36:56.640Z,55.50
2022-12-01T03:39:02.564Z,56.63
2022-12-01T03:41:14.389Z,53.53
2022-12-01T03:43:21.344Z,63.60
2022-12-01T03:45:31.055Z,58.40
2022-12-01T03:47:34.901Z,59.85
2022-12-01T03:49:37.528Z,57.80
2022-12-01T03:51:44.556Z,68.13
2022-12-01T03:53:55.820Z,58.20
2022-12-01T03:56:02.431Z,70.53
2022-12-01T03:58:09.442Z,63.28
2022-12-01T04:00:13.436Z,67.97
2022-12-01T04:02:16.218Z,57.28
2022-12-01T04:04:17.844Z,67.55
2022-12-01T04:06:19.390Z,59.40
2022-12-01T04:08:21.441Z,53.28
2022-12-01T04:10:24.398Z,63.65
2022-12-01T04:12:26.160Z,60.75
2022-12-01T04:16:29.190Z,52.67
2022-12-01T04:18:31.219Z,58.72
2022-12-01T04:20:32.776Z,61.78
2022-12-01T04:22:34.324Z,70.55
2022-12-01T04:24:35.898Z,66.07
2022-12-01T04:26:39.294Z,58.00
2022-12-01T04:28:40.870Z,71.65
2022-12-01T04:30:42.432Z,57.22
2022-12-01T04:32:44.320Z,64.13
2022-12-01T04:36:47.369Z,47.30
2022-12-01T04:38:49.171Z,67.72
2022-12-01T04:40:50.680Z,67.53
2022-12-01T04:42:53.571Z,65.43
2022-12-01T04:44:55.170Z,64.47
2022-12-01T04:46:56.843Z,58.53
2022-12-01T04:48:58.547Z,62.17
2022-12-01T04:51:00.128Z,64.85
2022-12-01T04:53:01.747Z,64.90
2022-12-01T04:55:03.563Z,55.40
2022-12-01T04:59:08.410Z,63.05
2022-12-01T05:01:12.997Z,68.90
2022-12-01T05:03:15.311Z,55.28
2022-12-01T05:05:16.982Z,62.20
2022-12-01T05:07:18.549Z,56.85
2022-12-01T05:09:20.117Z,67.07
2022-12-01T05:11:21.829Z,65.35
2022-12-01T05:13:23.499Z,64.28
2022-12-01T05:15:26.475Z,66.90
2022-12-01T05:17:35.513Z,62.63
2022-12-01T05:19:38.644Z,57.90
2022-12-01T05:21:41.045Z,56.60
2022-12-01T05:23:42.602Z,64.75
2022-12-01T05:25:44.197Z,63.40
2022-12-01T05:27:45.806Z,61.45
2022-12-01T05:29:47.710Z,54.40
2022-12-01T05:31:51.021Z,65.05
2022-12-01T05:33:52.639Z,57.38
2022-12-01T05:35:54.555Z,58.90
2022-12-01T05:39:57.479Z,46.53
2022-12-01T05:41:58.974Z,64.20
2022-12-01T05:44:00.559Z,61.45
2022-12-01T05:46:03.284Z,56.80
2022-12-01T05:48:06.343Z,58.78
2022-12-01T05:50:09.025Z,64.13
2022-12-01T05:52:10.862Z,54.72
2022-12-01T05:56:13.656Z,56.60
2022-12-01T05:58:15.220Z,66.18
2022-12-01T06:00:17.767Z,63.47
2022-12-01T06:02:19.336Z,67.30
2022-12-01T06:04:22.538Z,62.70
2022-12-01T06:06:24.283Z,59.38
2022-12-01T06:08:25.868Z,61.05
2022-12-01T06:10:27.551Z,67.68
2022-12-01T06:12:29.233Z,63.53
2022-12-01T06:14:30.751Z,64.03
2022-12-01T06:16:35.222Z,64.20
2022-12-01T06:18:38.267Z,63.88
2022-12-01T06:20:41.151Z,66.32
2022-12-01T06:22:42.785Z,75.35
2022-12-01T06:24:44.344Z,65.53
2022-12-01T06:26:45.905Z,62.20
2022-12-01T06:28:47.451Z,66.10
2022-12-01T06:30:49.001Z,60.97
2022-12-01T06:32:50.592Z,58.90
2022-12-01T06:34:52.191Z,69.88
2022-12-01T06:36:55.077Z,60.60
2022-12-01T06:38:56.760Z,55.85
2022-12-01T06:40:58.447Z,48.38
2022-12-01T06:43:00.799Z,61.65
2022-12-01T06:45:02.404Z,52.75
2022-12-01T06:47:04.257Z,45.08
2022-12-01T06:51:07.539Z,50.28
2022-12-01T06:55:12.089Z,52.65
2022-12-01T06:57:14.155Z,62.03
2022-12-01T06:59:15.872Z,59.03
2022-12-01T07:01:18.655Z,61.58
2022-12-01T07:03:20.229Z,55.40
2022-12-01T07:05:21.818Z,70.85
2022-12-01T07:07:23.456Z,65.10
2022-12-01T07:09:26.424Z,56.50
2022-12-01T07:11:28.023Z,58.22
2022-12-01T07:13:33.408Z,52.58
2022-12-01T07:15:35.367Z,55.47
2022-12-01T07:17:37.025Z,61.03
2022-12-01T07:19:38.569Z,58.08
2022-12-01T07:21:40.170Z,56.90
2022-12-01T07:23:42.308Z,64.15
2022-12-01T07:25:45.204Z,72.35
2022-12-01T07:27:46.704Z,57.67
2022-12-01T07:29:48.647Z,72.22
2022-12-01T07:31:50.273Z,63.90
2022-12-01T07:33:53.402Z,56.08
2022-12-01T07:35:54.942Z,63.08
2022-12-01T07:37:56.853Z,77.63
2022-12-01T07:39:58.368Z,66.75
2022-12-01T07:42:01.407Z,79.20
2022-12-01T07:44:03.232Z,68.78
2022-12-01T07:48:07.593Z,69.80
2022-12-01T07:50:09.783Z,77.53
2022-12-01T07:52:11.324Z,73.78
2022-12-01T07:54:12.995Z,67.00
2022-12-01T07:56:14.846Z,89.00
2022-12-01T08:00:19.697Z,80.10
2022-12-01T08:02:21.277Z,79.03
2022-12-01T08:04:23.004Z,66.95
2022-12-01T08:06:25.645Z,79.22
2022-12-01T08:08:27.629Z,72.75
2022-12-01T08:10:29.130Z,78.60
2022-12-01T08:12:30.726Z,71.18
2022-12-01T08:14:33.642Z,59.08
2022-12-01T08:16:35.202Z,82.28
2022-12-01T08:18:37.360Z,83.65
2022-12-01T08:20:39.032Z,88.40
2022-12-01T08:22:40.550Z,79.47
2022-12-01T08:24:42.115Z,92.97
2022-12-01T08:26:43.711Z,80.90
2022-12-01T08:28:46.444Z,82.43
2022-12-01T08:30:49.751Z,88.82
2022-12-01T08:32:53.624Z,88.47
2022-12-01T08:34:55.346Z,81.07
2022-12-01T08:36:56.948Z,91.70
2022-12-01T08:38:58.762Z,85.60
2022-12-01T08:43:02.568Z,86.10
2022-12-01T08:45:04.810Z,100.00
2022-12-01T08:47:07.823Z,85.22
2022-12-01T08:49:09.663Z,101.78
2022-12-01T08:53:13.176Z,92.10
2022-12-01T08:55:14.883Z,88.53
2022-12-01T08:57:16.494Z,96.28
2022-12-01T08:59:18.344Z,97.30
2022-12-01T09:03:22.905Z,96.25
2022-12-01T09:05:24.569Z,96.57
2022-12-01T09:07:26.955Z,92.28
2022-12-01T09:09:29.079Z,85.53
2022-12-01T09:13:32.749Z,101.80
2022-12-01T09:15:34.555Z,100.50
2022-12-01T09:19:39.166Z,75.00
2022-12-01T09:21:41.262Z,91.85
2022-12-01T09:23:43.004Z,104.60
2022-12-01T09:25:44.724Z,98.25
2022-12-01T09:27:46.283Z,87.32
2022-12-01T09:29:48.254Z,63.00
2022-12-01T09:31:50.170Z,100.43
2022-12-01T09:33:54.751Z,103.88
2022-12-01T09:35:59.331Z,85.45
2022-12-01T09:38:01.212Z,96.78
2022-12-01T09:40:03.172Z,95.28
2022-12-01T09:42:11.295Z,97.78
2022-12-01T09:44:19.582Z,85.65
2022-12-01T09:46:26.056Z,85.88
2022-12-01T09:48:34.729Z,91.40
2022-12-01T09:50:36.416Z,78.97
2022-12-01T09:52:43.263Z,87.65
2022-12-01T09:54:45.480Z,91.90
2022-12-01T09:56:49.457Z,96.32
2022-12-01T09:58:55.085Z,106.20
2022-12-01T10:00:57.625Z,85.07
2022-12-01T10:03:13.969Z,88.45
2022-12-01T10:05:19.407Z,91.43
2022-12-01T10:07:24.595Z,93.65
2022-12-01T10:09:32.911Z,89.63
2022-12-01T10:11:36.621Z,96.50
2022-12-01T10:13:38.273Z,91.47
2022-12-01T10:15:48.703Z,89.10
2022-12-01T10:18:03.111Z,91.95
2022-12-01T10:20:11.304Z,100.22
2022-12-01T10:24:31.599Z,86.45
2022-12-01T10:26:43.972Z,92.90
2022-12-01T10:29:10.355Z,92.05
2022-12-01T10:31:18.931Z,91.25
2022-12-01T10:33:24.564Z,98.68
2022-12-01T10:35:28.928Z,87.25
2022-12-01T10:37:31.510Z,96.47
2022-12-01T10:39:37.663Z,89.78
2022-12-01T10:41:40.392Z,95.10
2022-12-01T10:43:45.665Z,86.15
2022-12-01T10:45:47.518Z,90.97
2022-12-01T10:48:09.793Z,87.00
2022-12-01T10:50:26.266Z,89.28
2022-12-01T10:52:32.995Z,81.57
2022-12-01T10:54:39.248Z,77.15
2022-12-01T10:56:42.176Z,82.30
2022-12-01T10:58:47.440Z,82.00
2022-12-01T11:01:09.511Z,88.90
2022-12-01T11:03:21.852Z,75.10
2022-12-01T11:05:27.926Z,87.10
2022-12-01T11:07:33.569Z,86.18
2022-12-01T11:09:36.629Z,86.95
2022-12-01T11:11:40.065Z,81.25
2022-12-01T11:13:42.196Z,84.00
2022-12-01T11:15:51.298Z,78.00
2022-12-01T11:17:58.720Z,74.10
2022-12-01T11:20:25.990Z,74.28
2022-12-01T11:22:30.408Z,68.00
2022-12-01T11:24:42.976Z,73.75
2022-12-01T11:26:44.619Z,69.80
2022-12-01T11:28:59.144Z,79.43
2022-12-01T11:33:04.717Z,71.60
2022-12-01T11:35:16.411Z,72.30
2022-12-01T11:37:22.411Z,74.72
2022-12-01T11:39:30.912Z,70.07
2022-12-01T11:41:38.035Z,66.97
2022-12-01T11:43:43.726Z,61.55
2022-12-01T11:45:48.645Z,60.95
2022-12-01T11:48:03.035Z,60.30
2022-12-01T11:50:24.737Z,58.65
2022-12-01T11:52:30.603Z,55.20
2022-12-01T11:54:32.162Z,61.00
2022-12-01T11:56:35.349Z,57.63
2022-12-01T11:58:37.030Z,59.08
2022-12-01T12:00:46.733Z,58.95
2022-12-01T12:03:03.076Z,63.50
2022-12-01T12:05:42.056Z,53.28
2022-12-01T12:07:54.576Z,54.17
2022-12-01T12:10:12.925Z,60.67
2022-12-01T12:12:40.148Z,58.75
2022-12-01T12:14:51.225Z,53.72
2022-12-01T12:17:09.860Z,59.20
2022-12-01T12:19:34.095Z,59.45
2022-12-01T12:22:00.556Z,59.85
2022-12-01T12:24:29.258Z,54.67
2022-12-01T12:26:37.684Z,54.10
2022-12-01T12:28:54.487Z,57.60
2022-12-01T12:31:07.994Z,56.67
2022-12-01T12:33:39.263Z,57.78
2022-12-01T12:35:47.048Z,55.30
2022-12-01T12:38:01.431Z,50.33
2022-12-01T12:40:45.726Z,47.35
2022-12-01T12:42:59.900Z,50.10
2022-12-01T12:45:13.964Z,53.70
2022-12-01T12:47:32.879Z,51.40
2022-12-01T12:49:42.695Z,48.42
2022-12-01T12:51:47.904Z,48.65
2022-12-01T12:53:54.532Z,51.97
2022-12-01T12:55:59.775Z,45.53
2022-12-01T12:58:11.090Z,46.38
2022-12-01T13:00:17.619Z,47.83
2022-12-01T13:02:24.306Z,47.88
2022-12-01T13:04:35.607Z,48.63
2022-12-01T13:06:41.683Z,47.17
2022-12-01T13:08:49.718Z,58.25
2022-12-01T13:10:57.762Z,49.47
2022-12-01T13:13:04.924Z,54.25
2022-12-01T13:15:16.597Z,51.95
2022-12-01T13:17:20.718Z,53.65
2022-12-01T13:19:27.543Z,46.97
2022-12-01T13:21:36.134Z,48.53
2022-12-01T13:23:38.540Z,45.25
2022-12-01T13:25:40.752Z,48.80
2022-12-01T13:27:44.309Z,50.97
2022-12-01T13:29:49.761Z,49.22
2022-12-01T13:31:54.585Z,54.22
2022-12-01T13:33:58.893Z,44.60
2022-12-01T13:36:30.314Z,53.17
2022-12-01T13:38:26.128Z,58.85
2022-12-01T13:40:30.280Z,45.50
2022-12-01T13:42:32.007Z,55.08
2022-12-01T13:44:40.532Z,51.35
2022-12-01T13:46:57.720Z,46.28
2022-12-01T13:49:00.970Z,54.10
2022-12-01T13:51:03.528Z,52.00
2022-12-01T13:53:10.852Z,51.38
2022-12-01T13:55:30.155Z,47.97
2022-12-01T13:57:34.266Z,55.05
2022-12-01T14:00:03.975Z,47.92
2022-12-01T14:02:21.797Z,48.38
2022-12-01T14:04:28.479Z,48.90
2022-12-01T14:06:39.701Z,49.92
2022-12-01T14:08:46.756Z,51.47
2022-12-01T14:10:54.373Z,47.65
2022-12-01T14:12:59.883Z,46.47
2022-12-01T14:15:04.180Z,49.88
2022-12-01T14:17:07.506Z,50.72
2022-12-01T14:19:27.942Z,48.70
2022-12-01T14:21:43.927Z,51.50
2022-12-01T14:24:00.634Z,53.75
2022-12-01T14:26:11.236Z,49.25
2022-12-01T14:28:15.010Z,46.97
2022-12-01T14:30:49.972Z,48.33
2022-12-01T14:32:51.598Z,44.58
2022-12-01T14:34:58.124Z,52.85
2022-12-01T14:37:06.764Z,50.58
2022-12-01T14:39:13.933Z,42.70
2022-12-01T14:41:22.778Z,42.25
2022-12-01T14:43:27.049Z,51.72
2022-12-01T14:45:35.134Z,48.13
2022-12-01T14:47:46.627Z,42.35
2022-12-01T14:49:53.541Z,46.15
2022-12-01T14:52:04.339Z,45.50
2022-12-01T14:54:14.231Z,45.42
2022-12-01T14:56:18.639Z,47.25
2022-12-01T14:58:24.662Z,44.47
2022-12-01T15:00:26.272Z,46.50
2022-12-01T15:02:27.975Z,48.83
2022-12-01T15:04:30.391Z,47.10
2022-12-01T15:06:34.895Z,48.38
2022-12-01T15:08:49.299Z,52.30
2022-12-01T15:10:57.579Z,46.65
2022-12-01T15:13:13.531Z,41.75
2022-12-01T15:15:21.072Z,47.10
2022-12-01T15:17:30.343Z,43.28
2022-12-01T15:19:35.692Z,44.97
2022-12-01T15:21:37.520Z,43.83
2022-12-01T15:25:55.554Z,44.80
2022-12-01T15:28:11.873Z,47.88
2022-12-01T15:30:14.558Z,44.45
2022-12-01T15:32:18.264Z,46.72
2022-12-01T15:34:24.477Z,42.83
2022-12-01T15:36:26.214Z,40.08
2022-12-01T15:38:31.161Z,45.22
2022-12-01T15:43:07.370Z,42.70
2022-12-01T15:45:17.599Z,39.50
2022-12-01T15:47:33.434Z,43.45
2022-12-01T15:49:35.154Z,41.20
2022-12-01T15:51:36.846Z,42.08
2022-12-01T15:53:44.899Z,45.00
2022-12-01T15:55:54.117Z,44.67
2022-12-01T15:57:59.495Z,43.63
2022-12-01T16:00:01.080Z,48.65
2022-12-01T16:02:24.418Z,48.80
2022-12-01T16:04:28.506Z,46.72
2022-12-01T16:06:32.962Z,47.72
2022-12-01T16:08:34.633Z,47.25
2022-12-01T16:12:39.728Z,45.55
2022-12-01T16:15:11.560Z,46.85
2022-12-01T16:17:13.248Z,45.95
2022-12-01T16:19:27.126Z,46.35
2022-12-01T16:21:30.664Z,54.30
2022-12-01T16:23:32.974Z,50.85
2022-12-01T16:25:36.974Z,48.28
2022-12-01T16:27:40.532Z,44.65
2022-12-01T16:29:48.185Z,47.75
2022-12-01T16:34:44.053Z,48.33
2022-12-01T16:36:39.567Z,55.00
2022-12-01T16:38:41.294Z,50.95
2022-12-01T16:40:43.443Z,55.92
2022-12-01T16:42:46.728Z,58.45
2022-12-01T16:44:49.445Z,54.33
2022-12-01T16:46:51.279Z,50.50
2022-12-01T16:48:52.912Z,52.03
2022-12-01T16:50:54.728Z,52.42
2022-12-01T16:54:57.834Z,48.20
2022-12-01T16:56:59.419Z,51.78
2022-12-01T16:59:02.680Z,51.58
2022-12-01T17:01:04.987Z,49.47
2022-12-01T17:03:07.274Z,47.17
2022-12-01T17:05:12.198Z,53.88
2022-12-01T17:07:13.856Z,55.42
2022-12-01T17:09:15.376Z,55.58
2022-12-01T17:11:16.904Z,49.85
2022-12-01T17:13:19.533Z,55.95
2022-12-01T17:15:22.478Z,52.63
2022-12-01T17:17:24.025Z,52.22
2022-12-01T17:19:27.595Z,49.63
2022-12-01T17:21:29.959Z,49.30
2022-12-01T17:23:31.585Z,54.90
2022-12-01T17:25:33.403Z,56.42
2022-12-01T17:29:37.844Z,59.85
2022-12-01T17:31:43.594Z,54.72
2022-12-01T17:33:45.164Z,56.53
2022-12-01T17:35:46.698Z,50.53
2022-12-01T17:37:48.337Z,52.38
2022-12-01T17:39:50.268Z,54.53
2022-12-01T17:41:53.927Z,60.83
2022-12-01T17:43:55.474Z,50.85
2022-12-01T17:45:57.120Z,51.67
2022-12-01T17:48:00.114Z,56.03
2022-12-01T17:50:02.086Z,55.50
2022-12-01T17:52:04.193Z,52.47
2022-12-01T17:54:06.614Z,53.42
2022-12-01T17:56:09.171Z,53.70
2022-12-01T17:58:10.739Z,47.75
2022-12-01T18:00:13.914Z,51.85
2022-12-01T18:02:15.900Z,45.40
2022-12-01T18:04:21.842Z,50.83
2022-12-01T18:06:23.453Z,50.08
2022-12-01T18:08:26.170Z,54.63
2022-12-01T18:10:27.791Z,49.92
2022-12-01T18:12:29.338Z,46.13
2022-12-01T18:14:31.076Z,52.22
2022-12-01T18:16:33.137Z,47.47
2022-12-01T18:18:36.111Z,46.47
2022-12-01T18:20:41.040Z,55.63
2022-12-01T18:22:42.660Z,48.72
2022-12-01T18:24:44.480Z,48.85
2022-12-01T18:28:52.756Z,49.78
2022-12-01T18:30:54.775Z,44.53
2022-12-01T18:32:57.015Z,45.53
2022-12-01T18:34:58.918Z,58.00
2022-12-01T18:37:03.135Z,50.65
2022-12-01T18:39:07.976Z,52.60
2022-12-01T18:41:13.491Z,51.17
2022-12-01T18:43:15.454Z,47.47
2022-12-01T18:45:21.075Z,51.55
2022-12-01T18:47:23.336Z,51.53
2022-12-01T18:51:26.962Z,54.70
2022-12-01T18:53:30.966Z,45.33
2022-12-01T18:55:35.732Z,48.90
2022-12-01T18:57:37.648Z,51.50
2022-12-01T18:59:39.553Z,49.30
2022-12-01T19:01:44.040Z,50.95
2022-12-01T19:03:46.713Z,52.90
2022-12-01T19:05:48.993Z,43.67
2022-12-01T19:07:52.955Z,52.13
2022-12-01T19:09:56.441Z,49.83
2022-12-01T19:11:58.332Z,46.10
2022-12-01T19:14:00.285Z,52.22
2022-12-01T19:16:06.712Z,48.22
2022-12-01T19:18:08.710Z,49.28
2022-12-01T19:20:11.841Z,46.25
2022-12-01T19:22:13.847Z,48.88
2022-12-01T19:24:15.791Z,45.60
2022-12-01T19:26:21.107Z,52.22
2022-12-01T19:28:23.100Z,48.00
2022-12-01T19:30:25.004Z,52.20
2022-12-01T19:32:26.689Z,50.10
2022-12-01T19:34:28.325Z,44.88
2022-12-01T19:36:30.031Z,47.05
2022-12-01T19:38:31.647Z,49.40
2022-12-01T19:40:33.315Z,45.47
2022-12-01T19:42:36.363Z,47.25
2022-12-01T19:44:37.941Z,43.35
2022-12-01T19:46:39.504Z,42.72
2022-12-01T19:48:41.619Z,45.92
2022-12-01T19:50:43.846Z,49.17
2022-12-01T19:52:45.504Z,49.35
2022-12-01T19:54:47.111Z,45.33
2022-12-01T19:56:48.996Z,53.35
2022-12-01T19:58:52.111Z,48.83
2022-12-01T20:00:53.658Z,53.17
2022-12-01T20:02:55.249Z,50.13
2022-12-01T20:04:56.831Z,46.40
2022-12-01T20:06:58.552Z,49.00
2022-12-01T20:11:03.807Z,55.45
2022-12-01T20:13:05.499Z,46.30
2022-12-01T20:17:15.742Z,43.40
2022-12-01T20:19:17.625Z,47.80
2022-12-01T20:21:20.792Z,44.20
2022-12-01T20:23:22.421Z,44.85
2022-12-01T20:25:24.114Z,47.05
2022-12-01T20:27:26.079Z,46.25
2022-12-01T20:29:29.570Z,51.20
2022-12-01T20:31:33.741Z,45.22
2022-12-01T20:33:35.421Z,48.40
2022-12-01T20:35:37.105Z,45.63
2022-12-01T20:37:38.687Z,44.47
2022-12-01T20:39:40.457Z,49.72
2022-12-01T20:43:43.743Z,157.18
2022-12-01T20:45:45.621Z,52.45
2022-12-01T20:47:48.640Z,51.65
2022-12-01T20:49:53.063Z,45.33
2022-12-01T20:51:58.486Z,42.75
2022-12-01T20:54:26.681Z,44.75
2022-12-01T20:56:21.907Z,40.75
2022-12-01T20:58:23.519Z,42.33
2022-12-01T21:00:25.158Z,45.78
2022-12-01T21:02:27.135Z,38.03
2022-12-01T21:04:30.453Z,43.08
2022-12-01T21:06:32.829Z,46.15
2022-12-01T21:08:36.657Z,45.03
2022-12-01T21:10:39.771Z,43.95
2022-12-01T21:12:45.727Z,48.25
2022-12-01T21:14:59.583Z,45.63
2022-12-01T21:17:08.466Z,41.15
2022-12-01T21:19:14.155Z,45.42
2022-12-01T21:21:25.450Z,42.95
2022-12-01T21:23:27.814Z,43.72
2022-12-01T21:25:29.495Z,44.70
2022-12-01T21:27:31.090Z,49.17
2022-12-01T21:29:40.101Z,39.60
2022-12-01T21:31:41.834Z,45.17
2022-12-01T21:35:44.932Z,42.38
2022-12-01T21:37:49.184Z,45.53
2022-12-01T21:39:52.324Z,45.08
2022-12-01T21:41:56.836Z,38.08
2022-12-01T21:44:02.632Z,46.83
2022-12-01T21:46:13.673Z,41.05
2022-12-01T21:48:17.463Z,43.63
2022-12-01T21:50:22.160Z,39.83
2022-12-01T21:52:27.746Z,44.63
2022-12-01T21:54:30.880Z,39.58
2022-12-01T21:56:32.875Z,42.85
2022-12-01T21:58:37.141Z,42.95
2022-12-01T22:00:41.070Z,44.42
2022-12-01T22:02:50.157Z,42.42
2022-12-01T22:04:52.114Z,43.70
2022-12-01T22:06:55.825Z,43.78
2022-12-01T22:09:00.912Z,43.03
2022-12-01T22:11:09.549Z,42.00
2022-12-01T22:13:11.093Z,40.20
2022-12-01T22:15:32.567Z,44.00
2022-12-01T22:17:35.469Z,40.65
2022-12-01T22:19:38.700Z,41.05
2022-12-01T22:21:44.237Z,47.03
2022-12-01T22:23:46.353Z,41.17
2022-12-01T22:25:48.006Z,41.50
2022-12-01T22:27:51.762Z,41.47
2022-12-01T22:29:59.805Z,44.70
2022-12-01T22:32:29.671Z,43.85
2022-12-01T22:34:31.346Z,42.40
2022-12-01T22:36:33.051Z,41.10
2022-12-01T22:38:36.519Z,41.25
2022-12-01T22:40:40.492Z,43.65
2022-12-01T22:42:42.086Z,43.13
2022-12-01T22:44:45.235Z,42.95
2022-12-01T22:46:46.926Z,40.20
2022-12-01T22:50:52.249Z,40.35
2022-12-01T22:52:56.398Z,42.22
2022-12-01T22:54:58.239Z,40.70
2022-12-01T22:57:11.361Z,38.45
2022-12-01T22:59:15.993Z,39.30
2022-12-01T23:01:24.834Z,42.20
2022-12-01T23:03:26.721Z,45.85
2022-12-01T23:07:33.885Z,47.97
2022-12-01T23:09:38.680Z,40.15
2022-12-01T23:11:42.819Z,44.55
2022-12-01T23:13:44.748Z,40.17
2022-12-01T23:15:47.839Z,39.15
2022-12-01T23:17:51.661Z,39.83
2022-12-01T23:20:01.718Z,40.47
2022-12-01T23:22:03.478Z,37.45
2022-12-01T23:26:08.782Z,40.92
2022-12-01T23:28:12.346Z,39.83
2022-12-01T23:30:15.720Z,40.25
2022-12-01T23:32:17.782Z,41.65
2022-12-01T23:34:20.961Z,43.63
2022-12-01T23:36:26.054Z,42.60
2022-12-01T23:38:31.833Z,42.58
2022-12-01T23:40:34.906Z,42.08
2022-12-01T23:42:36.698Z,35.63
2022-12-01T23:46:42.134Z,36.60
2022-12-01T23:48:46.059Z,42.17
2022-12-01T23:50:52.315Z,43.67
2022-12-01T23:52:54.365Z,39.85
2022-12-01T23:54:56.074Z,38.28
2022-12-01T23:57:02.174Z,38.80
2022-12-01T23:59:05.674Z,43.45
